sensor_id;sensor_type;location;lat;lon;timestamp;pressure;altitude;pressure_sealevel;temperature;humidity
21658;BME280;10990;48.174;9.782;2023-12-07T00:00:21;94109.19;;;-1.38;100.00
21658;BME280;10990;48.174;9.782;2023-12-07T00:02:48;94114.03;;;-1.33;100.00
21658;BME280;10990;48.174;9.782;2023-12-07T00:05:14;94109.81;;;-1.34;100.00
21658;BME280;10990;48.174;9.782;2023-12-07T00:07:40;94107.69;;;-1.29;100.00
21658;BME280;10990;48.174;9.782;2023-12-07T00:10:10;94112.88;;;-1.29;100.00
21658;BME280;10990;48.174;9.782;2023-12-07T00:12:36;94110.75;;;-1.24;100.00
21658;BME280;10990;48.174;9.782;2023-12-07T00:15:02;94105.78;;;-1.16;100.00
21658;BME280;10990;48.174;9.782;2023-12-07T00:17:28;94108.28;;;-1.15;100.00
21658;BME280;10990;48.174;9.782;2023-12-07T00:19:54;94111.94;;;-1.17;100.00
21658;BME280;10990;48.174;9.782;2023-12-07T00:22:21;94122.53;;;-1.31;100.00
21658;BME280;10990;48.174;9.782;2023-12-07T00:24:47;94129.03;;;-1.26;100.00
21658;BME280;10990;48.174;9.782;2023-12-07T00:27:15;94114.88;;;-1.22;100.00
21658;BME280;10990;48.174;9.782;2023-12-07T00:29:42;94121.00;;;-1.23;100.00
21658;BME280;10990;48.174;9.782;2023-12-07T00:32:08;94122.91;;;-1.14;100.00
21658;BME280;10990;48.174;9.782;2023-12-07T00:34:34;94121.50;;;-1.18;100.00
21658;BME280;10990;48.174;9.782;2023-12-07T00:37:00;94130.19;;;-1.19;100.00
21658;BME280;10990;48.174;9.782;2023-12-07T00:39:26;94125.94;;;-1.31;100.00
21658;BME280;10990;48.174;9.782;2023-12-07T00:41:52;94127.00;;;-1.33;100.00
21658;BME280;10990;48.174;9.782;2023-12-07T00:44:21;94120.88;;;-1.32;100.00
21658;BME280;10990;48.174;9.782;2023-12-07T00:46:47;94126.31;;;-1.24;100.00
21658;BME280;10990;48.174;9.782;2023-12-07T00:49:13;94119.72;;;-1.17;100.00
21658;BME280;10990;48.174;9.782;2023-12-07T00:51:39;94126.28;;;-1.36;100.00
21658;BME280;10990;48.174;9.782;2023-12-07T00:54:06;94131.03;;;-1.41;100.00
21658;BME280;10990;48.174;9.782;2023-12-07T00:56:32;94129.25;;;-1.40;100.00
21658;BME280;10990;48.174;9.782;2023-12-07T00:58:58;94124.75;;;-1.27;100.00
21658;BME280;10990;48.174;9.782;2023-12-07T01:01:27;94114.28;;;-1.25;100.00
21658;BME280;10990;48.174;9.782;2023-12-07T01:03:54;94115.84;;;-1.11;100.00
21658;BME280;10990;48.174;9.782;2023-12-07T01:06:20;94128.09;;;-1.14;100.00
21658;BME280;10990;48.174;9.782;2023-12-07T01:08:46;94119.38;;;-1.13;100.00
21658;BME280;10990;48.174;9.782;2023-12-07T01:11:12;94121.13;;;-1.02;100.00
21658;BME280;10990;48.174;9.782;2023-12-07T01:13:38;94127.84;;;-1.10;100.00
21658;BME280;10990;48.174;9.782;2023-12-07T01:16:05;94130.22;;;-1.07;100.00
21658;BME280;10990;48.174;9.782;2023-12-07T01:18:33;94127.28;;;-1.03;100.00
21658;BME280;10990;48.174;9.782;2023-12-07T01:21:00;94136.25;;;-1.07;100.00
21658;BME280;10990;48.174;9.782;2023-12-07T01:23:26;94135.38;;;-1.19;100.00
21658;BME280;10990;48.174;9.782;2023-12-07T01:25:52;94137.28;;;-1.21;100.00
21658;BME280;10990;48.174;9.782;2023-12-07T01:28:18;94144.47;;;-1.24;100.00
21658;BME280;10990;48.174;9.782;2023-12-07T01:30:44;94144.72;;;-1.16;100.00
21658;BME280;10990;48.174;9.782;2023-12-07T01:33:11;94150.84;;;-1.28;100.00
21658;BME280;10990;48.174;9.782;2023-12-07T01:35:40;94152.13;;;-1.34;100.00
21658;BME280;10990;48.174;9.782;2023-12-07T01:38:06;94154.25;;;-1.28;100.00
21658;BME280;10990;48.174;9.782;2023-12-07T01:40:33;94155.56;;;-1.22;100.00
21658;BME280;10990;48.174;9.782;2023-12-07T01:42:59;94139.75;;;-1.08;100.00
21658;BME280;10990;48.174;9.782;2023-12-07T01:45:25;94143.78;;;-1.15;100.00
21658;BME280;10990;48.174;9.782;2023-12-07T01:47:52;94140.16;;;-1.01;100.00
21658;BME280;10990;48.174;9.782;2023-12-07T01:50:20;94140.22;;;-1.14;100.00
21658;BME280;10990;48.174;9.782;2023-12-07T01:52:52;94140.94;;;-1.23;100.00
21658;BME280;10990;48.174;9.782;2023-12-07T01:55:20;94137.88;;;-1.17;100.00
21658;BME280;10990;48.174;9.782;2023-12-07T01:57:48;94132.94;;;-1.09;100.00
21658;BME280;10990;48.174;9.782;2023-12-07T02:00:15;94131.88;;;-0.95;100.00
21658;BME280;10990;48.174;9.782;2023-12-07T02:02:43;94131.88;;;-1.06;100.00
21658;BME280;10990;48.174;9.782;2023-12-07T02:05:10;94140.00;;;-1.22;100.00
21658;BME280;10990;48.174;9.782;2023-12-07T02:07:36;94139.66;;;-1.18;100.00
21658;BME280;10990;48.174;9.782;2023-12-07T02:10:06;94139.75;;;-1.19;100.00
21658;BME280;10990;48.174;9.782;2023-12-07T02:12:32;94150.00;;;-1.29;100.00
21658;BME280;10990;48.174;9.782;2023-12-07T02:15:00;94146.09;;;-1.34;100.00
21658;BME280;10990;48.174;9.782;2023-12-07T02:17:33;94146.78;;;-1.44;100.00
21658;BME280;10990;48.174;9.782;2023-12-07T02:20:05;94155.75;;;-1.48;100.00
21658;BME280;10990;48.174;9.782;2023-12-07T02:22:52;94202.09;;;-2.15;100.00
21658;BME280;10990;48.174;9.782;2023-12-07T02:25:24;94197.38;;;-2.21;100.00
21658;BME280;10990;48.174;9.782;2023-12-07T02:27:54;94184.34;;;-2.09;100.00
21658;BME280;10990;48.174;9.782;2023-12-07T02:30:20;94188.75;;;-1.98;100.00
21658;BME280;10990;48.174;9.782;2023-12-07T02:32:47;94194.44;;;-2.17;100.00
21658;BME280;10990;48.174;9.782;2023-12-07T02:35:13;94213.22;;;-2.26;100.00
21658;BME280;10990;48.174;9.782;2023-12-07T02:37:43;94210.69;;;-2.39;100.00
21658;BME280;10990;48.174;9.782;2023-12-07T02:40:10;94208.53;;;-2.21;100.00
21658;BME280;10990;48.174;9.782;2023-12-07T02:42:37;94187.84;;;-1.97;100.00
21658;BME280;10990;48.174;9.782;2023-12-07T02:45:06;94191.84;;;-1.93;100.00
21658;BME280;10990;48.174;9.782;2023-12-07T02:47:32;94184.50;;;-1.75;100.00
21658;BME280;10990;48.174;9.782;2023-12-07T02:49:58;94179.78;;;-1.81;100.00
21658;BME280;10990;48.174;9.782;2023-12-07T02:52:24;94179.59;;;-1.67;100.00
21658;BME280;10990;48.174;9.782;2023-12-07T02:54:50;94171.91;;;-1.79;100.00
21658;BME280;10990;48.174;9.782;2023-12-07T02:57:16;94161.00;;;-1.61;100.00
21658;BME280;10990;48.174;9.782;2023-12-07T02:59:42;94163.72;;;-1.62;100.00
21658;BME280;10990;48.174;9.782;2023-12-07T03:02:10;94161.63;;;-1.57;100.00
21658;BME280;10990;48.174;9.782;2023-12-07T03:04:36;94168.56;;;-1.58;100.00
21658;BME280;10990;48.174;9.782;2023-12-07T03:07:02;94179.28;;;-1.86;100.00
21658;BME280;10990;48.174;9.782;2023-12-07T03:09:28;94180.69;;;-1.93;100.00
21658;BME280;10990;48.174;9.782;2023-12-07T03:11:54;94169.03;;;-1.88;100.00
21658;BME280;10990;48.174;9.782;2023-12-07T03:14:20;94167.41;;;-1.77;100.00
21658;BME280;10990;48.174;9.782;2023-12-07T03:16:45;94165.78;;;-1.78;100.00
21658;BME280;10990;48.174;9.782;2023-12-07T03:19:14;94186.19;;;-1.98;100.00
21658;BME280;10990;48.174;9.782;2023-12-07T03:21:40;94185.41;;;-2.11;100.00
21658;BME280;10990;48.174;9.782;2023-12-07T03:24:06;94186.41;;;-2.25;100.00
21658;BME280;10990;48.174;9.782;2023-12-07T03:26:32;94195.03;;;-2.37;100.00
21658;BME280;10990;48.174;9.782;2023-12-07T03:28:59;94194.13;;;-2.49;100.00
21658;BME280;10990;48.174;9.782;2023-12-07T03:31:25;94190.44;;;-2.34;100.00
21658;BME280;10990;48.174;9.782;2023-12-07T03:33:50;94186.28;;;-2.23;100.00
21658;BME280;10990;48.174;9.782;2023-12-07T03:36:19;94188.78;;;-2.22;100.00
21658;BME280;10990;48.174;9.782;2023-12-07T03:38:45;94195.53;;;-2.32;100.00
21658;BME280;10990;48.174;9.782;2023-12-07T03:41:11;94204.47;;;-2.49;100.00
21658;BME280;10990;48.174;9.782;2023-12-07T03:43:36;94210.16;;;-2.44;100.00
21658;BME280;10990;48.174;9.782;2023-12-07T03:46:04;94202.19;;;-2.54;100.00
21658;BME280;10990;48.174;9.782;2023-12-07T03:48:30;94203.13;;;-2.55;100.00
21658;BME280;10990;48.174;9.782;2023-12-07T03:50:55;94210.31;;;-2.71;100.00
21658;BME280;10990;48.174;9.782;2023-12-07T03:53:24;94213.84;;;-2.85;100.00
21658;BME280;10990;48.174;9.782;2023-12-07T03:55:50;94218.28;;;-3.00;100.00
21658;BME280;10990;48.174;9.782;2023-12-07T03:58:16;94222.03;;;-3.04;100.00
21658;BME280;10990;48.174;9.782;2023-12-07T04:00:41;94233.09;;;-3.14;100.00
21658;BME280;10990;48.174;9.782;2023-12-07T04:03:07;94240.28;;;-3.32;100.00
21658;BME280;10990;48.174;9.782;2023-12-07T04:05:33;94232.13;;;-3.39;100.00
21658;BME280;10990;48.174;9.782;2023-12-07T04:07:59;94232.41;;;-3.44;100.00
21658;BME280;10990;48.174;9.782;2023-12-07T04:10:28;94223.16;;;-3.21;100.00
21658;BME280;10990;48.174;9.782;2023-12-07T04:12:54;94231.38;;;-3.41;100.00
21658;BME280;10990;48.174;9.782;2023-12-07T04:15:20;94252.97;;;-3.55;100.00
21658;BME280;10990;48.174;9.782;2023-12-07T04:17:45;94276.50;;;-3.99;100.00
21658;BME280;10990;48.174;9.782;2023-12-07T04:20:11;94275.56;;;-3.98;100.00
21658;BME280;10990;48.174;9.782;2023-12-07T04:22:37;94273.13;;;-3.87;100.00
21658;BME280;10990;48.174;9.782;2023-12-07T04:25:04;94258.19;;;-3.69;100.00
21658;BME280;10990;48.174;9.782;2023-12-07T04:27:33;94251.59;;;-3.61;100.00
21658;BME280;10990;48.174;9.782;2023-12-07T04:29:59;94255.66;;;-3.56;100.00
21658;BME280;10990;48.174;9.782;2023-12-07T04:32:25;94255.41;;;-3.66;100.00
21658;BME280;10990;48.174;9.782;2023-12-07T04:34:51;94244.63;;;-3.33;100.00
21658;BME280;10990;48.174;9.782;2023-12-07T04:37:18;94240.53;;;-3.23;100.00
21658;BME280;10990;48.174;9.782;2023-12-07T04:39:43;94233.81;;;-3.12;100.00
21658;BME280;10990;48.174;9.782;2023-12-07T04:42:09;94234.84;;;-3.02;100.00
21658;BME280;10990;48.174;9.782;2023-12-07T04:44:38;94244.75;;;-3.22;100.00
21658;BME280;10990;48.174;9.782;2023-12-07T04:47:04;94237.66;;;-3.18;100.00
21658;BME280;10990;48.174;9.782;2023-12-07T04:49:30;94245.47;;;-3.32;100.00
21658;BME280;10990;48.174;9.782;2023-12-07T04:51:56;94250.97;;;-3.24;100.00
21658;BME280;10990;48.174;9.782;2023-12-07T04:54:22;94234.84;;;-3.02;100.00
21658;BME280;10990;48.174;9.782;2023-12-07T04:56:47;94237.44;;;-3.15;100.00
21658;BME280;10990;48.174;9.782;2023-12-07T04:59:13;94255.81;;;-3.32;100.00
21658;BME280;10990;48.174;9.782;2023-12-07T05:01:42;94261.97;;;-3.48;100.00
21658;BME280;10990;48.174;9.782;2023-12-07T05:04:07;94264.78;;;-3.51;100.00
21658;BME280;10990;48.174;9.782;2023-12-07T05:06:34;94262.75;;;-3.73;100.00
21658;BME280;10990;48.174;9.782;2023-12-07T05:09:00;94275.13;;;-3.78;100.00
21658;BME280;10990;48.174;9.782;2023-12-07T05:11:26;94267.81;;;-3.71;100.00
21658;BME280;10990;48.174;9.782;2023-12-07T05:13:52;94271.81;;;-3.80;100.00
21658;BME280;10990;48.174;9.782;2023-12-07T05:16:18;94287.84;;;-4.02;100.00
21658;BME280;10990;48.174;9.782;2023-12-07T05:18:46;94272.19;;;-3.86;100.00
21658;BME280;10990;48.174;9.782;2023-12-07T05:21:12;94261.94;;;-3.61;100.00
21658;BME280;10990;48.174;9.782;2023-12-07T05:23:38;94256.41;;;-3.54;100.00
21658;BME280;10990;48.174;9.782;2023-12-07T05:26:04;94263.97;;;-3.78;100.00
21658;BME280;10990;48.174;9.782;2023-12-07T05:28:30;94261.84;;;-3.59;100.00
21658;BME280;10990;48.174;9.782;2023-12-07T05:30:56;94274.09;;;-3.75;100.00
21658;BME280;10990;48.174;9.782;2023-12-07T05:33:22;94287.19;;;-4.06;100.00
21658;BME280;10990;48.174;9.782;2023-12-07T05:35:50;94305.84;;;-4.29;100.00
21658;BME280;10990;48.174;9.782;2023-12-07T05:38:16;94289.50;;;-4.15;100.00
21658;BME280;10990;48.174;9.782;2023-12-07T05:40:42;94293.56;;;-4.25;100.00
21658;BME280;10990;48.174;9.782;2023-12-07T05:43:07;94304.19;;;-4.30;100.00
21658;BME280;10990;48.174;9.782;2023-12-07T05:45:33;94302.88;;;-4.23;100.00
21658;BME280;10990;48.174;9.782;2023-12-07T05:47:59;94306.25;;;-4.49;100.00
21658;BME280;10990;48.174;9.782;2023-12-07T05:50:25;94321.72;;;-4.64;100.00
21658;BME280;10990;48.174;9.782;2023-12-07T05:52:53;94326.06;;;-4.64;100.00
21658;BME280;10990;48.174;9.782;2023-12-07T05:55:19;94312.78;;;-4.44;100.00
21658;BME280;10990;48.174;9.782;2023-12-07T05:57:45;94328.72;;;-4.66;100.00
21658;BME280;10990;48.174;9.782;2023-12-07T06:00:12;94325.88;;;-4.61;100.00
21658;BME280;10990;48.174;9.782;2023-12-07T06:02:38;94332.22;;;-4.53;100.00
21658;BME280;10990;48.174;9.782;2023-12-07T06:05:05;94348.75;;;-4.85;100.00
21658;BME280;10990;48.174;9.782;2023-12-07T06:07:31;94338.84;;;-4.77;100.00
21658;BME280;10990;48.174;9.782;2023-12-07T06:09:59;94333.84;;;-4.80;100.00
21658;BME280;10990;48.174;9.782;2023-12-07T06:12:25;94334.09;;;-4.99;100.00
21658;BME280;10990;48.174;9.782;2023-12-07T06:14:51;94335.31;;;-4.90;100.00
21658;BME280;10990;48.174;9.782;2023-12-07T06:17:17;94331.81;;;-4.89;100.00
21658;BME280;10990;48.174;9.782;2023-12-07T06:19:42;94346.16;;;-5.30;100.00
21658;BME280;10990;48.174;9.782;2023-12-07T06:22:08;94330.25;;;-4.92;100.00
21658;BME280;10990;48.174;9.782;2023-12-07T06:24:34;94325.19;;;-4.79;100.00
21658;BME280;10990;48.174;9.782;2023-12-07T06:27:03;94315.19;;;-4.69;100.00
21658;BME280;10990;48.174;9.782;2023-12-07T06:29:31;94317.56;;;-4.66;100.00
21658;BME280;10990;48.174;9.782;2023-12-07T06:31:57;94307.13;;;-4.51;100.00
21658;BME280;10990;48.174;9.782;2023-12-07T06:34:23;94308.44;;;-4.43;100.00
21658;BME280;10990;48.174;9.782;2023-12-07T06:36:48;94311.22;;;-4.61;100.00
21658;BME280;10990;48.174;9.782;2023-12-07T06:39:14;94305.41;;;-4.64;100.00
21658;BME280;10990;48.174;9.782;2023-12-07T06:41:40;94322.78;;;-4.97;100.00
21658;BME280;10990;48.174;9.782;2023-12-07T06:44:08;94308.63;;;-4.75;100.00
21658;BME280;10990;48.174;9.782;2023-12-07T06:46:34;94306.94;;;-4.76;100.00
21658;BME280;10990;48.174;9.782;2023-12-07T06:49:00;94306.31;;;-4.65;100.00
21658;BME280;10990;48.174;9.782;2023-12-07T06:51:26;94313.13;;;-4.79;100.00
21658;BME280;10990;48.174;9.782;2023-12-07T06:53:52;94303.00;;;-4.67;100.00
21658;BME280;10990;48.174;9.782;2023-12-07T06:56:20;94297.84;;;-4.82;100.00
21658;BME280;10990;48.174;9.782;2023-12-07T06:58:46;94289.66;;;-4.60;100.00
21658;BME280;10990;48.174;9.782;2023-12-07T07:01:14;94295.44;;;-4.56;100.00
21658;BME280;10990;48.174;9.782;2023-12-07T07:03:40;94297.88;;;-4.53;100.00
21658;BME280;10990;48.174;9.782;2023-12-07T07:06:06;94303.75;;;-4.65;100.00
21658;BME280;10990;48.174;9.782;2023-12-07T07:08:32;94297.88;;;-4.53;100.00
21658;BME280;10990;48.174;9.782;2023-12-07T07:10:58;94290.63;;;-4.34;100.00
21658;BME280;10990;48.174;9.782;2023-12-07T07:13:24;94293.97;;;-4.46;100.00
21658;BME280;10990;48.174;9.782;2023-12-07T07:15:50;94314.31;;;-4.84;100.00
21658;BME280;10990;48.174;9.782;2023-12-07T07:18:18;94315.16;;;-4.84;100.00
21658;BME280;10990;48.174;9.782;2023-12-07T07:20:44;94310.28;;;-4.74;100.00
21658;BME280;10990;48.174;9.782;2023-12-07T07:23:10;94290.13;;;-4.53;100.00
21658;BME280;10990;48.174;9.782;2023-12-07T07:25:36;94282.28;;;-4.52;100.00
21658;BME280;10990;48.174;9.782;2023-12-07T07:28:01;94269.91;;;-4.32;100.00
21658;BME280;10990;48.174;9.782;2023-12-07T07:30:27;94263.91;;;-4.18;100.00
21658;BME280;10990;48.174;9.782;2023-12-07T07:32:53;94264.28;;;-4.24;100.00
21658;BME280;10990;48.174;9.782;2023-12-07T07:35:21;94256.88;;;-4.16;100.00
21658;BME280;10990;48.174;9.782;2023-12-07T07:37:47;94258.81;;;-4.20;100.00
21658;BME280;10990;48.174;9.782;2023-12-07T07:40:13;94254.31;;;-4.16;100.00
21658;BME280;10990;48.174;9.782;2023-12-07T07:42:39;94279.69;;;-4.52;100.00
21658;BME280;10990;48.174;9.782;2023-12-07T07:45:06;94270.94;;;-4.49;100.00
21658;BME280;10990;48.174;9.782;2023-12-07T07:47:32;94255.41;;;-4.20;100.00
21658;BME280;10990;48.174;9.782;2023-12-07T07:49:59;94246.09;;;-4.23;100.00
21658;BME280;10990;48.174;9.782;2023-12-07T07:52:27;94240.28;;;-4.12;100.00
21658;BME280;10990;48.174;9.782;2023-12-07T07:54:53;94227.38;;;-4.12;100.00
21658;BME280;10990;48.174;9.782;2023-12-07T07:57:19;94221.03;;;-3.94;100.00
21658;BME280;10990;48.174;9.782;2023-12-07T07:59:45;94216.38;;;-3.89;100.00
21658;BME280;10990;48.174;9.782;2023-12-07T08:02:11;94218.19;;;-4.03;100.00
21658;BME280;10990;48.174;9.782;2023-12-07T08:04:37;94212.22;;;-4.04;100.00
21658;BME280;10990;48.174;9.782;2023-12-07T08:07:04;94212.09;;;-3.75;100.00
21658;BME280;10990;48.174;9.782;2023-12-07T08:09:33;94193.31;;;-3.65;100.00
21658;BME280;10990;48.174;9.782;2023-12-07T08:11:59;94211.88;;;-3.85;100.00
21658;BME280;10990;48.174;9.782;2023-12-07T08:14:24;94210.34;;;-3.75;100.00
21658;BME280;10990;48.174;9.782;2023-12-07T08:16:50;94206.38;;;-3.53;100.00
21658;BME280;10990;48.174;9.782;2023-12-07T08:19:16;94206.69;;;-3.45;100.00
21658;BME280;10990;48.174;9.782;2023-12-07T08:21:42;94218.28;;;-3.78;100.00
21658;BME280;10990;48.174;9.782;2023-12-07T08:24:08;94213.59;;;-3.58;100.00
21658;BME280;10990;48.174;9.782;2023-12-07T08:26:36;94203.28;;;-3.46;100.00
21658;BME280;10990;48.174;9.782;2023-12-07T08:29:02;94206.06;;;-3.36;100.00
21658;BME280;10990;48.174;9.782;2023-12-07T08:31:28;94207.22;;;-3.40;100.00
21658;BME280;10990;48.174;9.782;2023-12-07T08:33:54;94202.38;;;-3.32;100.00
21658;BME280;10990;48.174;9.782;2023-12-07T08:36:19;94194.81;;;-3.35;100.00
21658;BME280;10990;48.174;9.782;2023-12-07T08:38:45;94194.41;;;-3.16;100.00
21658;BME280;10990;48.174;9.782;2023-12-07T08:41:11;94193.59;;;-3.04;100.00
21658;BME280;10990;48.174;9.782;2023-12-07T08:43:39;94190.03;;;-3.16;100.00
21658;BME280;10990;48.174;9.782;2023-12-07T08:46:06;94198.84;;;-3.05;100.00
21658;BME280;10990;48.174;9.782;2023-12-07T08:48:32;94187.97;;;-2.85;100.00
21658;BME280;10990;48.174;9.782;2023-12-07T08:50:57;94210.22;;;-3.33;100.00
21658;BME280;10990;48.174;9.782;2023-12-07T08:53:23;94205.34;;;-3.38;100.00
21658;BME280;10990;48.174;9.782;2023-12-07T08:55:49;94190.69;;;-3.12;100.00
21658;BME280;10990;48.174;9.782;2023-12-07T08:58:15;94195.22;;;-3.16;100.00
21658;BME280;10990;48.174;9.782;2023-12-07T09:00:43;94174.59;;;-2.66;100.00
21658;BME280;10990;48.174;9.782;2023-12-07T09:03:09;94151.84;;;-2.13;100.00
21658;BME280;10990;48.174;9.782;2023-12-07T09:05:35;94126.91;;;-1.78;100.00
21658;BME280;10990;48.174;9.782;2023-12-07T09:08:01;94136.53;;;-1.81;100.00
21658;BME280;10990;48.174;9.782;2023-12-07T09:10:27;94144.44;;;-1.82;100.00
21658;BME280;10990;48.174;9.782;2023-12-07T09:12:52;94146.34;;;-1.73;100.00
21658;BME280;10990;48.174;9.782;2023-12-07T09:15:18;94131.03;;;-1.29;100.00
21658;BME280;10990;48.174;9.782;2023-12-07T09:17:47;94115.13;;;-0.91;100.00
21658;BME280;10990;48.174;9.782;2023-12-07T09:20:12;94104.47;;;-0.65;100.00
21658;BME280;10990;48.174;9.782;2023-12-07T09:22:39;94119.59;;;-0.71;100.00
21658;BME280;10990;48.174;9.782;2023-12-07T09:25:06;94120.22;;;-0.24;100.00
21658;BME280;10990;48.174;9.782;2023-12-07T09:27:33;94114.53;;;-0.17;100.00
21658;BME280;10990;48.174;9.782;2023-12-07T09:29:59;94154.75;;;-0.55;100.00
21658;BME280;10990;48.174;9.782;2023-12-07T09:32:24;94168.69;;;-0.90;100.00
21658;BME280;10990;48.174;9.782;2023-12-07T09:34:53;94136.16;;;-0.17;100.00
21658;BME280;10990;48.174;9.782;2023-12-07T09:37:19;94118.44;;;0.62;100.00
21658;BME280;10990;48.174;9.782;2023-12-07T09:39:44;94132.94;;;0.23;100.00
21658;BME280;10990;48.174;9.782;2023-12-07T09:42:10;94115.97;;;0.92;100.00
21658;BME280;10990;48.174;9.782;2023-12-07T09:44:36;94127.75;;;0.86;100.00
21658;BME280;10990;48.174;9.782;2023-12-07T09:47:02;94065.13;;;2.07;100.00
21658;BME280;10990;48.174;9.782;2023-12-07T09:49:29;94056.28;;;3.04;100.00
21658;BME280;10990;48.174;9.782;2023-12-07T09:51:58;94033.84;;;3.84;100.00
21658;BME280;10990;48.174;9.782;2023-12-07T09:54:25;94020.81;;;4.46;100.00
21658;BME280;10990;48.174;9.782;2023-12-07T09:56:52;94019.16;;;5.39;100.00
21658;BME280;10990;48.174;9.782;2023-12-07T09:59:17;94043.13;;;5.10;100.00
21658;BME280;10990;48.174;9.782;2023-12-07T10:01:43;94026.94;;;5.66;100.00
21658;BME280;10990;48.174;9.782;2023-12-07T10:04:16;94071.91;;;5.36;100.00
21658;BME280;10990;48.174;9.782;2023-12-07T10:06:42;94090.31;;;5.45;100.00
21658;BME280;10990;48.174;9.782;2023-12-07T10:09:11;94131.91;;;5.39;100.00
21658;BME280;10990;48.174;9.782;2023-12-07T10:11:37;94127.47;;;6.09;100.00
21658;BME280;10990;48.174;9.782;2023-12-07T10:14:03;94168.31;;;6.11;100.00
21658;BME280;10990;48.174;9.782;2023-12-07T10:16:29;94197.66;;;6.65;100.00
21658;BME280;10990;48.174;9.782;2023-12-07T10:18:54;94298.81;;;5.75;100.00
21658;BME280;10990;48.174;9.782;2023-12-07T10:21:31;94348.53;;;5.84;100.00
21658;BME280;10990;48.174;9.782;2023-12-07T10:23:57;94393.88;;;6.13;100.00
21658;BME280;10990;48.174;9.782;2023-12-07T10:26:26;94453.88;;;6.51;100.00
21658;BME280;10990;48.174;9.782;2023-12-07T10:28:52;94559.53;;;6.27;100.00
21658;BME280;10990;48.174;9.782;2023-12-07T10:31:19;94672.53;;;6.18;100.00
21658;BME280;10990;48.174;9.782;2023-12-07T10:33:47;94760.56;;;6.40;100.00
21658;BME280;10990;48.174;9.782;2023-12-07T10:36:13;94920.94;;;5.80;100.00
21658;BME280;10990;48.174;9.782;2023-12-07T10:38:39;95189.06;;;3.03;100.00
21658;BME280;10990;48.174;9.782;2023-12-07T10:41:06;95220.31;;;1.72;100.00
21658;BME280;10990;48.174;9.782;2023-12-07T10:43:37;95159.78;;;1.55;100.00
21658;BME280;10990;48.174;9.782;2023-12-07T10:46:04;95164.06;;;0.80;100.00
21658;BME280;10990;48.174;9.782;2023-12-07T10:48:32;95137.78;;;0.44;100.00
21658;BME280;10990;48.174;9.782;2023-12-07T10:51:05;95049.63;;;0.91;100.00
21658;BME280;10990;48.174;9.782;2023-12-07T10:53:37;95037.56;;;0.77;100.00
21658;BME280;10990;48.174;9.782;2023-12-07T10:56:04;95010.63;;;0.65;100.00
21658;BME280;10990;48.174;9.782;2023-12-07T10:58:30;95012.91;;;0.19;100.00
21658;BME280;10990;48.174;9.782;2023-12-07T11:01:02;94967.56;;;0.23;100.00
21658;BME280;10990;48.174;9.782;2023-12-07T11:03:29;94930.13;;;0.13;100.00
21658;BME280;10990;48.174;9.782;2023-12-07T11:05:55;94892.03;;;0.37;100.00
21658;BME280;10990;48.174;9.782;2023-12-07T11:08:25;94879.84;;;0.38;100.00
21658;BME280;10990;48.174;9.782;2023-12-07T11:11:01;94861.78;;;0.24;100.00
21658;BME280;10990;48.174;9.782;2023-12-07T11:13:31;94825.44;;;0.35;100.00
21658;BME280;10990;48.174;9.782;2023-12-07T11:15:57;94803.25;;;0.42;100.00
21658;BME280;10990;48.174;9.782;2023-12-07T11:18:27;94788.38;;;0.44;100.00
21658;BME280;10990;48.174;9.782;2023-12-07T11:20:54;94795.00;;;0.24;100.00
21658;BME280;10990;48.174;9.782;2023-12-07T11:23:20;94782.50;;;0.29;100.00
21658;BME280;10990;48.174;9.782;2023-12-07T11:25:47;94778.06;;;0.18;100.00
21658;BME280;10990;48.174;9.782;2023-12-07T11:28:14;94771.22;;;0.05;100.00
21658;BME280;10990;48.174;9.782;2023-12-07T11:30:42;94753.09;;;-0.08;100.00
21658;BME280;10990;48.174;9.782;2023-12-07T11:33:09;94724.19;;;0.20;100.00
21658;BME280;10990;48.174;9.782;2023-12-07T11:36:02;94696.09;;;0.26;100.00
21658;BME280;10990;48.174;9.782;2023-12-07T11:38:29;94688.97;;;0.28;100.00
21658;BME280;10990;48.174;9.782;2023-12-07T11:40:55;94678.81;;;0.25;100.00
21658;BME280;10990;48.174;9.782;2023-12-07T11:43:36;94685.50;;;0.16;100.00
21658;BME280;10990;48.174;9.782;2023-12-07T11:46:03;94671.56;;;0.17;100.00
21658;BME280;10990;48.174;9.782;2023-12-07T11:48:29;94672.81;;;0.11;100.00
21658;BME280;10990;48.174;9.782;2023-12-07T11:50:59;94662.06;;;0.05;100.00
21658;BME280;10990;48.174;9.782;2023-12-07T11:53:26;94647.94;;;-0.04;100.00
21658;BME280;10990;48.174;9.782;2023-12-07T11:55:53;94650.16;;;-0.11;100.00
21658;BME280;10990;48.174;9.782;2023-12-07T11:58:19;94635.72;;;0.09;100.00
21658;BME280;10990;48.174;9.782;2023-12-07T12:00:45;94616.75;;;0.20;100.00
21658;BME280;10990;48.174;9.782;2023-12-07T12:03:12;94604.22;;;0.25;100.00
21658;BME280;10990;48.174;9.782;2023-12-07T12:05:37;94602.22;;;0.17;100.00
21658;BME280;10990;48.174;9.782;2023-12-07T12:08:06;94607.13;;;0.09;100.00
21658;BME280;10990;48.174;9.782;2023-12-07T12:10:32;94585.97;;;0.14;100.00
21658;BME280;10990;48.174;9.782;2023-12-07T12:13:01;94590.91;;;0.06;100.00
21658;BME280;10990;48.174;9.782;2023-12-07T12:15:27;94574.91;;;0.12;100.00
21658;BME280;10990;48.174;9.782;2023-12-07T12:17:53;94566.56;;;-0.05;100.00
21658;BME280;10990;48.174;9.782;2023-12-07T12:20:19;94546.22;;;-0.11;100.00
21658;BME280;10990;48.174;9.782;2023-12-07T12:22:45;94533.94;;;-0.09;100.00
21658;BME280;10990;48.174;9.782;2023-12-07T12:25:13;94509.19;;;0.10;100.00
21658;BME280;10990;48.174;9.782;2023-12-07T12:27:40;94500.31;;;0.12;100.00
21658;BME280;10990;48.174;9.782;2023-12-07T12:30:07;94489.13;;;0.23;100.00
21658;BME280;10990;48.174;9.782;2023-12-07T12:32:42;94471.28;;;0.41;100.00
21658;BME280;10990;48.174;9.782;2023-12-07T12:35:08;94453.66;;;0.67;100.00
21658;BME280;10990;48.174;9.782;2023-12-07T12:37:34;94464.78;;;0.58;100.00
21658;BME280;10990;48.174;9.782;2023-12-07T12:40:05;94482.50;;;0.41;100.00
21658;BME280;10990;48.174;9.782;2023-12-07T12:42:34;94486.50;;;0.12;100.00
21658;BME280;10990;48.174;9.782;2023-12-07T12:45:00;94465.25;;;0.18;100.00
21658;BME280;10990;48.174;9.782;2023-12-07T12:47:26;94461.34;;;0.24;100.00
21658;BME280;10990;48.174;9.782;2023-12-07T12:49:52;94444.81;;;0.47;100.00